Wetterdaten: Woche 21.09.20 - 27.09.20 (KW39)
Datum Zeit Temp. Aussen Temp. o. S. Temp +5cm Feuchte Auss Luftdruck Regen Sonnenschein Regendauer Solar Windben Empfang
21.09.2020 00:00 14,9 C 13,0 C 12,4 C 72 % 1017,0 hPa 0,0 l/m 0,00 h 0,00 h 0 W/m 0,2 km/h (0 Bft) 97,13 %
21.09.2020 01:00 13,9 C 11,6 C 11,1 C 75 % 1016,7 hPa 0,0 l/m 0,00 h 0,00 h 0 W/m 0,0 km/h (0 Bft) 97,22 %
21.09.2020 02:00 12,7 C 10,8 C 10,1 C 79 % 1016,6 hPa 0,0 l/m 0,00 h 0,00 h 0 W/m 0,0 km/h (0 Bft) 96,80 %
21.09.2020 03:00 11,8 C 10,0 C 9,5 C 81 % 1016,5 hPa 0,0 l/m 0,00 h 0,00 h 0 W/m 0,0 km/h (0 Bft) 98,58 %
21.09.2020 04:00 11,1 C 9,7 C 9,2 C 85 % 1016,3 hPa 0,0 l/m 0,00 h 0,00 h 0 W/m 0,0 km/h (0 Bft) 96,62 %
21.09.2020 05:00 10,4 C 8,6 C 8,3 C 85 % 1016,3 hPa 0,0 l/m 0,00 h 0,00 h 0 W/m 0,0 km/h (0 Bft) 98,43 %
21.09.2020 06:00 9,6 C 7,7 C 7,7 C 86 % 1016,3 hPa 0,0 l/m 0,00 h 0,00 h 0 W/m 0,0 km/h (0 Bft) 94,51 %
21.09.2020 07:00 8,9 C 7,3 C 7,2 C 88 % 1016,5 hPa 0,0 l/m 0,00 h 0,00 h 10 W/m 0,0 km/h (0 Bft) 98,93 %
21.09.2020 08:00 8,8 C 9,0 C 8,1 C 91 % 1016,9 hPa 0,0 l/m 0,00 h 0,00 h 25 W/m 0,0 km/h (0 Bft) 96,55 %
21.09.2020 09:00 10,7 C 15,4 C 11,3 C 95 % 1016,8 hPa 0,0 l/m 0,50 h 0,00 h 187 W/m 1,9 km/h (1 Bft) 97,65 %
21.09.2020 10:00 16,3 C 24,1 C 18,0 C 80 % 1016,7 hPa 0,0 l/m 1,00 h 0,00 h 444 W/m 7,2 km/h (2 Bft) 97,75 %
21.09.2020 11:00 20,6 C 27,6 C 17,6 C 62 % 1016,5 hPa 0,0 l/m 1,00 h 0,00 h 562 W/m 6,4 km/h (2 Bft) 96,21 %
21.09.2020 12:00 23,0 C 29,6 C 19,7 C 56 % 1016,2 hPa 0,0 l/m 1,00 h 0,00 h 646 W/m 8,2 km/h (2 Bft) 96,20 %
21.09.2020 13:00 24,9 C 31,0 C 22,3 C 52 % 1015,8 hPa 0,0 l/m 1,00 h 0,00 h 683 W/m 7,6 km/h (2 Bft) 98,17 %
21.09.2020 14:00 26,0 C 31,2 C 23,2 C 48 % 1015,3 hPa 0,0 l/m 1,00 h 0,00 h 664 W/m 10,2 km/h (2 Bft) 97,56 %
21.09.2020 15:00 26,5 C 31,1 C 23,9 C 45 % 1014,9 hPa 0,0 l/m 1,00 h 0,00 h 590 W/m 8,0 km/h (2 Bft) 96,65 %
21.09.2020 16:00 27,3 C 30,6 C 27,5 C 44 % 1014,6 hPa 0,0 l/m 1,00 h 0,00 h 464 W/m 5,2 km/h (1 Bft) 97,04 %
21.09.2020 17:00 27,2 C 28,2 C 22,8 C 44 % 1014,3 hPa 0,0 l/m 0,70 h 0,00 h 248 W/m 0,0 km/h (0 Bft) 96,60 %
21.09.2020 18:00 24,6 C 22,0 C 18,6 C 50 % 1014,1 hPa 0,0 l/m 0,00 h 0,00 h 39 W/m 0,1 km/h (0 Bft) 98,21 %
21.09.2020 19:00 21,3 C 17,9 C 16,1 C 61 % 1014,0 hPa 0,0 l/m 0,00 h 0,00 h 13 W/m 0,0 km/h (0 Bft) 98,01 %
21.09.2020 20:00 18,3 C 15,3 C 14,1 C 68 % 1014,0 hPa 0,0 l/m 0,00 h 0,00 h 0 W/m 0,0 km/h (0 Bft) 95,95 %
21.09.2020 21:00 16,2 C 13,7 C 12,8 C 74 % 1013,9 hPa 0,0 l/m 0,00 h 0,00 h 0 W/m 0,0 km/h (0 Bft) 98,33 %
21.09.2020 22:00 14,8 C 12,7 C 11,9 C 77 % 1013,7 hPa 0,0 l/m 0,00 h 0,00 h 0 W/m 0,0 km/h (0 Bft) 97,67 %
21.09.2020 23:00 13,8 C 11,9 C 11,3 C 78 % 1013,6 hPa 0,0 l/m 0,00 h 0,00 h 0 W/m 0,0 km/h (0 Bft) 97,59 %
22.09.2020 00:00 12,8 C 11,1 C 10,6 C 81 % 1013,5 hPa 0,0 l/m 0,00 h 0,00 h 0 W/m 0,0 km/h (0 Bft) 98,60 %
22.09.2020 01:00 12,2 C 10,5 C 10,1 C 84 % 1013,3 hPa 0,0 l/m 0,00 h 0,00 h 0 W/m 0,0 km/h (0 Bft) 97,17 %
22.09.2020 02:00 11,4 C 9,6 C 9,3 C 84 % 1013,0 hPa 0,0 l/m 0,00 h 0,00 h 0 W/m 0,0 km/h (0 Bft) 94,21 %
22.09.2020 03:00 10,7 C 8,9 C 8,7 C 86 % 1012,8 hPa 0,0 l/m 0,00 h 0,00 h 0 W/m 0,0 km/h (0 Bft) 98,29 %
22.09.2020 04:00 10,1 C 8,4 C 8,2 C 87 % 1012,5 hPa 0,0 l/m 0,00 h 0,00 h 0 W/m 0,0 km/h (0 Bft) 99,17 %
22.09.2020 05:00 9,7 C 8,3 C 8,2 C 90 % 1012,3 hPa 0,0 l/m 0,00 h 0,00 h 0 W/m 0,0 km/h (0 Bft) 97,28 %
22.09.2020 06:00 9,3 C 7,6 C 7,5 C 91 % 1012,1 hPa 0,0 l/m 0,00 h 0,00 h 0 W/m 0,0 km/h (0 Bft) 96,14 %
22.09.2020 07:00 9,0 C 8,3 C 8,0 C 92 % 1012,1 hPa 0,0 l/m 0,00 h 0,00 h 12 W/m 0,0 km/h (0 Bft) 97,02 %
22.09.2020 08:00 9,6 C 10,1 C 9,4 C 95 % 1012,2 hPa 0,0 l/m 0,00 h 0,00 h 37 W/m 1,4 km/h (1 Bft) 97,39 %
22.09.2020 09:00 11,2 C 14,7 C 11,9 C 95 % 1012,3 hPa 0,0 l/m 0,47 h 0,00 h 172 W/m 3,3 km/h (1 Bft) 97,04 %
22.09.2020 10:00 15,4 C 22,1 C 16,6 C 83 % 1012,3 hPa 0,0 l/m 1,00 h 0,00 h 401 W/m 5,2 km/h (1 Bft) 96,54 %
22.09.2020 11:00 18,9 C 25,8 C 16,6 C 72 % 1012,0 hPa 0,0 l/m 1,00 h 0,00 h 535 W/m 2,7 km/h (1 Bft) 98,12 %
22.09.2020 12:00 21,9 C 29,0 C 18,5 C 64 % 1011,3 hPa 0,0 l/m 1,00 h 0,00 h 618 W/m 4,2 km/h (1 Bft) 98,30 %
22.09.2020 13:00 24,5 C 31,2 C 20,6 C 58 % 1010,7 hPa 0,0 l/m 1,00 h 0,00 h 654 W/m 4,9 km/h (1 Bft) 94,11 %
22.09.2020 14:00 26,1 C 31,4 C 21,8 C 51 % 1010,1 hPa 0,0 l/m 1,00 h 0,00 h 629 W/m 5,5 km/h (1 Bft) 95,87 %
22.09.2020 15:00 26,9 C 31,4 C 22,2 C 49 % 1009,5 hPa 0,0 l/m 1,00 h 0,00 h 547 W/m 5,3 km/h (1 Bft) 99,43 %
22.09.2020 16:00 27,2 C 30,0 C 25,8 C 48 % 1008,8 hPa 0,0 l/m 1,00 h 0,00 h 418 W/m 1,7 km/h (1 Bft) 96,86 %
22.09.2020 17:00 26,7 C 27,3 C 22,3 C 51 % 1008,0 hPa 0,0 l/m 0,70 h 0,00 h 220 W/m 0,3 km/h (0 Bft) 96,53 %
22.09.2020 18:00 24,3 C 21,7 C 18,7 C 56 % 1007,6 hPa 0,0 l/m 0,00 h 0,00 h 47 W/m 0,0 km/h (0 Bft) 98,91 %
22.09.2020 19:00 21,1 C 17,9 C 16,1 C 67 % 1007,3 hPa 0,0 l/m 0,00 h 0,00 h 13 W/m 0,0 km/h (0 Bft) 95,80 %
22.09.2020 20:00 18,2 C 15,3 C 14,2 C 74 % 1007,2 hPa 0,0 l/m 0,00 h 0,00 h 0 W/m 0,0 km/h (0 Bft) 98,72 %
22.09.2020 21:00 16,3 C 13,8 C 13,0 C 78 % 1007,1 hPa 0,0 l/m 0,00 h 0,00 h 0 W/m 0,0 km/h (0 Bft) 96,08 %
22.09.2020 22:00 14,9 C 13,0 C 12,2 C 80 % 1007,2 hPa 0,0 l/m 0,00 h 0,00 h 0 W/m 0,0 km/h (0 Bft) 97,64 %
22.09.2020 23:00 14,1 C 12,5 C 11,6 C 83 % 1007,2 hPa 0,0 l/m 0,00 h 0,00 h 0 W/m 0,0 km/h (0 Bft) 97,30 %
23.09.2020 00:00 13,2 C 11,3 C 10,8 C 83 % 1007,0 hPa 0,0 l/m 0,00 h 0,00 h 0 W/m 0,0 km/h (0 Bft) 96,53 %
23.09.2020 01:00 12,3 C 10,9 C 10,2 C 86 % 1006,7 hPa 0,0 l/m 0,00 h 0,00 h 0 W/m 0,0 km/h (0 Bft) 96,87 %
23.09.2020 02:00 12,0 C 11,0 C 10,4 C 90 % 1006,6 hPa 0,0 l/m 0,00 h 0,00 h 0 W/m 0,0 km/h (0 Bft) 96,28 %
23.09.2020 03:00 12,0 C 12,0 C 11,0 C 91 % 1006,5 hPa 0,0 l/m 0,00 h 0,00 h 0 W/m 0,0 km/h (0 Bft) 98,29 %
23.09.2020 04:00 12,1 C 10,7 C 10,2 C 90 % 1006,3 hPa 0,0 l/m 0,00 h 0,00 h 0 W/m 0,0 km/h (0 Bft) 99,29 %
23.09.2020 05:00 11,5 C 9,9 C 9,6 C 90 % 1006,2 hPa 0,0 l/m 0,00 h 0,00 h 0 W/m 0,0 km/h (0 Bft) 96,58 %
23.09.2020 06:00 10,8 C 9,7 C 9,0 C 90 % 1006,3 hPa 0,0 l/m 0,00 h 0,00 h 0 W/m 0,0 km/h (0 Bft) 97,11 %
23.09.2020 07:00 10,7 C 10,1 C 9,3 C 93 % 1006,2 hPa 0,0 l/m 0,00 h 0,00 h 11 W/m 0,0 km/h (0 Bft) 97,60 %
23.09.2020 08:00 11,4 C 12,7 C 11,5 C 94 % 1006,4 hPa 0,0 l/m 0,00 h 0,00 h 54 W/m 3,9 km/h (1 Bft) 97,90 %
23.09.2020 09:00 14,0 C 17,2 C 14,3 C 87 % 1006,5 hPa 0,0 l/m 0,43 h 0,00 h 190 W/m 8,4 km/h (2 Bft) 97,50 %
23.09.2020 10:00 17,4 C 20,2 C 17,9 C 75 % 1006,5 hPa 0,0 l/m 0,40 h 0,00 h 252 W/m 9,8 km/h (2 Bft) 95,50 %
23.09.2020 11:00 19,8 C 24,3 C 18,8 C 68 % 1006,3 hPa 0,0 l/m 0,83 h 0,00 h 441 W/m 11,6 km/h (2 Bft) 99,50 %
23.09.2020 12:00 22,6 C 27,3 C 20,9 C 63 % 1005,9 hPa 0,0 l/m 1,00 h 0,00 h 583 W/m 18,4 km/h (3 Bft) 97,72 %
23.09.2020 13:00 23,9 C 26,1 C 22,4 C 60 % 1005,3 hPa 0,0 l/m 0,67 h 0,00 h 457 W/m 21,3 km/h (4 Bft) 96,50 %
23.09.2020 14:00 23,9 C 26,1 C 22,6 C 62 % 1004,8 hPa 0,0 l/m 0,53 h 0,00 h 419 W/m 20,3 km/h (4 Bft) 98,22 %
23.09.2020 15:00 24,9 C 26,1 C 22,9 C 57 % 1004,1 hPa 0,0 l/m 0,57 h 0,00 h 368 W/m 22,5 km/h (4 Bft) 97,15 %
23.09.2020 16:00 23,5 C 22,2 C 21,3 C 61 % 1003,6 hPa 0,0 l/m 0,00 h 0,17 h 110 W/m 17,3 km/h (3 Bft) 98,00 %
23.09.2020 17:00 23,1 C 22,6 C 21,7 C 60 % 1003,1 hPa 0,0 l/m 0,00 h 0,00 h 81 W/m 23,6 km/h (4 Bft) 97,51 %
23.09.2020 18:00 22,9 C 21,9 C 21,3 C 60 % 1002,8 hPa 0,0 l/m 0,00 h 0,00 h 35 W/m 19,2 km/h (3 Bft) 97,86 %
23.09.2020 19:00 22,2 C 20,8 C 20,4 C 61 % 1002,6 hPa 0,0 l/m 0,00 h 0,00 h 10 W/m 18,2 km/h (3 Bft) 97,29 %
23.09.2020 20:00 21,2 C 19,3 C 18,8 C 64 % 1002,5 hPa 0,0 l/m 0,00 h 0,00 h 0 W/m 7,1 km/h (2 Bft) 96,72 %
23.09.2020 21:00 20,3 C 19,2 C 18,8 C 68 % 1002,2 hPa 0,0 l/m 0,00 h 0,00 h 0 W/m 11,1 km/h (2 Bft) 99,01 %
23.09.2020 22:00 19,9 C 18,1 C 17,7 C 70 % 1001,6 hPa 0,0 l/m 0,00 h 0,00 h 0 W/m 7,2 km/h (2 Bft) 98,08 %
23.09.2020 23:00 18,7 C 17,3 C 16,9 C 74 % 1000,8 hPa 0,0 l/m 0,00 h 0,00 h 0 W/m 13,4 km/h (3 Bft) 95,39 %
24.09.2020 00:00 18,6 C 17,4 C 17,1 C 78 % 999,9 hPa 0,0 l/m 0,00 h 0,17 h 0 W/m 17,4 km/h (3 Bft) 99,36 %
24.09.2020 01:00 18,0 C 15,0 C 15,1 C 85 % 1000,3 hPa 1,2 l/m 0,00 h 0,80 h 0 W/m 9,9 km/h (2 Bft) 99,08 %
24.09.2020 02:00 16,4 C 14,4 C 14,4 C 93 % 1000,1 hPa 0,8 l/m 0,00 h 0,30 h 0 W/m 12,9 km/h (3 Bft) 94,03 %
24.09.2020 03:00 16,0 C 14,3 C 14,2 C 95 % 1000,5 hPa 1,0 l/m 0,00 h 0,23 h 0 W/m 18,2 km/h (3 Bft) 99,34 %
24.09.2020 04:00 14,0 C 12,1 C 12,2 C 93 % 1001,9 hPa 0,0 l/m 0,00 h 0,23 h 0 W/m 11,1 km/h (2 Bft) 98,37 %
24.09.2020 05:00 13,0 C 11,6 C 11,4 C 93 % 1002,6 hPa 0,0 l/m 0,00 h 0,00 h 0 W/m 8,8 km/h (2 Bft) 95,17 %
24.09.2020 06:00 12,4 C 11,5 C 11,0 C 93 % 1003,3 hPa 0,0 l/m 0,00 h 0,00 h 0 W/m 12,1 km/h (2 Bft) 97,50 %
24.09.2020 07:00 12,1 C 11,1 C 10,6 C 93 % 1004,0 hPa 0,0 l/m 0,00 h 0,00 h 9 W/m 16,1 km/h (3 Bft) 97,65 %
24.09.2020 08:00 12,1 C 11,8 C 10,9 C 92 % 1004,5 hPa 0,0 l/m 0,00 h 0,00 h 27 W/m 19,9 km/h (4 Bft) 97,72 %
24.09.2020 09:00 12,8 C 13,7 C 11,8 C 90 % 1004,8 hPa 0,0 l/m 0,43 h 0,00 h 145 W/m 22,1 km/h (4 Bft) 98,07 %
24.09.2020 10:00 14,7 C 17,9 C 14,3 C 82 % 1005,2 hPa 0,0 l/m 0,93 h 0,00 h 405 W/m 24,6 km/h (4 Bft) 95,73 %
24.09.2020 11:00 16,5 C 20,0 C 15,2 C 71 % 1005,1 hPa 0,0 l/m 1,00 h 0,00 h 564 W/m 28,0 km/h (4 Bft) 98,65 %
24.09.2020 12:00 17,9 C 21,5 C 16,5 C 63 % 1004,5 hPa 0,0 l/m 1,00 h 0,00 h 589 W/m 25,4 km/h (4 Bft) 97,93 %
24.09.2020 13:00 18,9 C 22,0 C 17,9 C 56 % 1004,0 hPa 0,0 l/m 1,00 h 0,00 h 586 W/m 28,0 km/h (4 Bft) 97,30 %
24.09.2020 14:00 19,6 C 22,7 C 18,2 C 53 % 1003,7 hPa 0,0 l/m 1,00 h 0,00 h 648 W/m 30,8 km/h (5 Bft) 97,93 %
24.09.2020 15:00 20,1 C 22,3 C 18,4 C 52 % 1003,0 hPa 0,0 l/m 1,00 h 0,00 h 499 W/m 27,3 km/h (4 Bft) 95,31 %
24.09.2020 16:00 19,4 C 19,8 C 18,3 C 54 % 1002,3 hPa 0,0 l/m 0,70 h 0,00 h 241 W/m 20,4 km/h (4 Bft) 99,00 %
24.09.2020 17:00 19,3 C 19,1 C 17,5 C 54 % 1001,5 hPa 0,0 l/m 0,40 h 0,00 h 147 W/m 11,3 km/h (2 Bft) 99,22 %
24.09.2020 18:00 19,0 C 17,8 C 16,7 C 55 % 1000,7 hPa 0,0 l/m 0,00 h 0,00 h 49 W/m 6,4 km/h (2 Bft) 93,89 %
24.09.2020 19:00 18,2 C 16,8 C 16,1 C 57 % 999,9 hPa 0,0 l/m 0,00 h 0,00 h 8 W/m 4,9 km/h (1 Bft) 99,43 %
24.09.2020 20:00 17,5 C 16,0 C 15,3 C 61 % 999,0 hPa 0,0 l/m 0,00 h 0,00 h 0 W/m 2,2 km/h (1 Bft) 97,93 %
24.09.2020 21:00 17,0 C 16,1 C 15,6 C 65 % 998,4 hPa 0,0 l/m 0,00 h 0,00 h 0 W/m 7,4 km/h (2 Bft) 96,52 %
24.09.2020 22:00 16,9 C 14,6 C 14,7 C 74 % 998,3 hPa 0,0 l/m 0,00 h 0,27 h 0 W/m 11,3 km/h (2 Bft) 97,74 %
24.09.2020 23:00 15,9 C 14,3 C 13,9 C 82 % 997,3 hPa 0,0 l/m 0,00 h 0,00 h 0 W/m 6,0 km/h (2 Bft) 95,93 %
25.09.2020 00:00 15,3 C 14,4 C 13,9 C 86 % 996,6 hPa 0,0 l/m 0,00 h 0,00 h 0 W/m 7,6 km/h (2 Bft) 97,77 %
25.09.2020 01:00 14,3 C 11,8 C 11,9 C 88 % 996,7 hPa 1,4 l/m 0,00 h 0,80 h 0 W/m 12,0 km/h (2 Bft) 98,93 %
25.09.2020 02:00 12,6 C 10,6 C 10,6 C 92 % 996,7 hPa 0,0 l/m 0,00 h 0,40 h 0 W/m 10,7 km/h (2 Bft) 93,61 %
25.09.2020 03:00 12,1 C 10,6 C 10,4 C 94 % 996,8 hPa 0,0 l/m 0,00 h 0,13 h 0 W/m 7,5 km/h (2 Bft) 98,29 %
25.09.2020 04:00 11,7 C 10,5 C 10,2 C 94 % 996,8 hPa 0,0 l/m 0,00 h 0,27 h 0 W/m 10,4 km/h (2 Bft) 99,14 %
25.09.2020 05:00 11,1 C 9,6 C 9,4 C 92 % 996,6 hPa 0,0 l/m 0,00 h 0,00 h 0 W/m 18,7 km/h (3 Bft) 97,73 %
25.09.2020 06:00 10,2 C 9,3 C 8,7 C 90 % 996,7 hPa 0,0 l/m 0,00 h 0,00 h 0 W/m 20,1 km/h (4 Bft) 95,73 %
25.09.2020 07:00 9,6 C 8,6 C 8,1 C 88 % 996,9 hPa 0,0 l/m 0,00 h 0,00 h 10 W/m 18,7 km/h (3 Bft) 97,62 %
25.09.2020 08:00 9,5 C 9,1 C 8,3 C 88 % 997,3 hPa 0,0 l/m 0,00 h 0,00 h 25 W/m 14,9 km/h (3 Bft) 97,53 %
25.09.2020 09:00 10,3 C 10,5 C 9,4 C 85 % 997,3 hPa 0,0 l/m 0,00 h 0,00 h 84 W/m 14,2 km/h (3 Bft) 96,97 %
25.09.2020 10:00 11,2 C 11,6 C 10,4 C 82 % 997,5 hPa 0,0 l/m 0,00 h 0,00 h 119 W/m 15,2 km/h (3 Bft) 96,40 %
25.09.2020 11:00 12,1 C 13,7 C 11,8 C 80 % 997,5 hPa 0,0 l/m 0,50 h 0,00 h 299 W/m 19,8 km/h (4 Bft) 98,27 %
25.09.2020 12:00 14,3 C 18,1 C 13,4 C 73 % 997,0 hPa 0,0 l/m 0,82 h 0,00 h 560 W/m 24,9 km/h (4 Bft) 98,73 %
25.09.2020 13:00 15,1 C 16,4 C 13,9 C 69 % 996,6 hPa 0,0 l/m 0,40 h 0,00 h 339 W/m 28,4 km/h (4 Bft) 96,45 %
25.09.2020 14:00 14,7 C 17,2 C 13,8 C 71 % 996,5 hPa 0,0 l/m 0,57 h 0,07 h 456 W/m 25,2 km/h (4 Bft) 96,94 %
25.09.2020 15:00 15,0 C 16,2 C 13,8 C 71 % 996,4 hPa 0,0 l/m 0,53 h 0,00 h 332 W/m 22,5 km/h (4 Bft) 98,63 %
25.09.2020 16:00 14,8 C 15,8 C 14,7 C 70 % 996,5 hPa 0,0 l/m 0,40 h 0,00 h 257 W/m 23,5 km/h (4 Bft) 95,85 %
25.09.2020 17:00 14,8 C 15,0 C 13,3 C 70 % 996,7 hPa 0,0 l/m 0,57 h 0,00 h 213 W/m 29,0 km/h (5 Bft) 98,08 %
25.09.2020 18:00 12,7 C 11,5 C 11,5 C 78 % 996,7 hPa 0,0 l/m 0,00 h 0,00 h 35 W/m 19,6 km/h (3 Bft) 96,35 %
25.09.2020 19:00 11,5 C 10,4 C 10,4 C 83 % 996,7 hPa 0,0 l/m 0,00 h 0,00 h 8 W/m 19,9 km/h (4 Bft) 96,37 %
25.09.2020 20:00 11,2 C 10,5 C 10,0 C 87 % 996,4 hPa 0,0 l/m 0,00 h 0,00 h 0 W/m 22,4 km/h (4 Bft) 97,94 %
25.09.2020 21:00 11,1 C 9,9 C 10,0 C 87 % 996,1 hPa 0,0 l/m 0,00 h 0,23 h 0 W/m 22,4 km/h (4 Bft) 98,79 %
25.09.2020 22:00 10,4 C 8,3 C 8,9 C 91 % 995,8 hPa 0,6 l/m 0,00 h 0,47 h 0 W/m 21,2 km/h (4 Bft) 95,80 %
25.09.2020 23:00 10,1 C 8,7 C 8,9 C 94 % 995,4 hPa 0,2 l/m 0,00 h 0,17 h 0 W/m 20,7 km/h (4 Bft) 97,36 %
26.09.2020 00:00 10,1 C 8,8 C 8,9 C 95 % 994,7 hPa 1,2 l/m 0,00 h 0,57 h 0 W/m 23,5 km/h (4 Bft) 98,82 %
26.09.2020 01:00 10,0 C 8,9 C 8,8 C 97 % 994,2 hPa 0,2 l/m 0,00 h 0,10 h 0 W/m 22,7 km/h (4 Bft) 97,35 %
26.09.2020 02:00 9,8 C 8,4 C 8,3 C 97 % 993,9 hPa 0,2 l/m 0,00 h 0,20 h 0 W/m 21,7 km/h (4 Bft) 96,73 %
26.09.2020 03:00 9,6 C 8,3 C 8,3 C 97 % 993,4 hPa 0,2 l/m 0,00 h 0,23 h 0 W/m 18,4 km/h (3 Bft) 98,35 %
26.09.2020 04:00 9,7 C 8,8 C 8,7 C 98 % 993,1 hPa 0,0 l/m 0,00 h 0,07 h 0 W/m 9,7 km/h (2 Bft) 96,73 %
26.09.2020 05:00 10,1 C 9,3 C 8,9 C 98 % 993,0 hPa 1,0 l/m 0,00 h 0,50 h 0 W/m 11,5 km/h (2 Bft) 98,96 %
26.09.2020 06:00 10,4 C 9,4 C 9,4 C 99 % 993,3 hPa 0,8 l/m 0,00 h 0,57 h 0 W/m 6,9 km/h (2 Bft) 95,79 %
26.09.2020 07:00 10,5 C 9,4 C 9,4 C 99 % 994,3 hPa 0,6 l/m 0,00 h 0,33 h 0 W/m 3,3 km/h (1 Bft) 97,43 %
26.09.2020 08:00 10,3 C 9,4 C 9,4 C 99 % 995,4 hPa 0,0 l/m 0,00 h 0,00 h 18 W/m 4,6 km/h (1 Bft) 99,43 %
26.09.2020 09:00 10,4 C 9,8 C 9,6 C 99 % 996,4 hPa 0,0 l/m 0,00 h 0,00 h 67 W/m 4,7 km/h (1 Bft) 96,58 %
26.09.2020 10:00 11,1 C 11,5 C 10,8 C 100 % 997,2 hPa 0,0 l/m 0,17 h 0,00 h 145 W/m 1,8 km/h (1 Bft) 96,09 %
26.09.2020 11:00 11,0 C 10,7 C 10,2 C 99 % 997,8 hPa 0,0 l/m 0,00 h 0,03 h 96 W/m 3,5 km/h (1 Bft) 97,60 %
26.09.2020 12:00 11,3 C 11,7 C 10,8 C 99 % 998,5 hPa 0,0 l/m 0,00 h 0,00 h 179 W/m 8,4 km/h (2 Bft) 97,57 %
26.09.2020 13:00 11,7 C 11,6 C 10,7 C 99 % 999,1 hPa 0,0 l/m 0,00 h 0,00 h 142 W/m 8,4 km/h (2 Bft) 97,15 %
26.09.2020 14:00 11,8 C 12,2 C 10,9 C 97 % 999,7 hPa 0,0 l/m 0,00 h 0,00 h 142 W/m 7,5 km/h (2 Bft) 96,67 %
26.09.2020 15:00 12,3 C 13,0 C 11,1 C 96 % 999,7 hPa 0,0 l/m 0,00 h 0,00 h 146 W/m 4,7 km/h (1 Bft) 98,31 %
26.09.2020 16:00 12,3 C 12,3 C 10,7 C 92 % 999,9 hPa 0,0 l/m 0,00 h 0,00 h 84 W/m 4,3 km/h (1 Bft) 97,81 %
26.09.2020 17:00 12,7 C 12,9 C 11,1 C 89 % 999,9 hPa 0,0 l/m 0,00 h 0,00 h 95 W/m 3,5 km/h (1 Bft) 95,94 %
26.09.2020 18:00 12,5 C 11,6 C 10,5 C 88 % 999,9 hPa 0,0 l/m 0,00 h 0,00 h 19 W/m 0,8 km/h (0 Bft) 97,66 %
26.09.2020 19:00 12,1 C 10,7 C 10,0 C 88 % 1000,3 hPa 0,0 l/m 0,00 h 0,20 h 4 W/m 0,0 km/h (0 Bft) 95,77 %
26.09.2020 20:00 11,6 C 9,4 C 9,5 C 90 % 1000,7 hPa 2,0 l/m 0,00 h 1,00 h 0 W/m 0,2 km/h (0 Bft) 96,30 %
26.09.2020 21:00 11,0 C 9,4 C 9,4 C 93 % 1000,0 hPa 3,2 l/m 0,00 h 1,00 h 0 W/m 1,2 km/h (1 Bft) 99,43 %
26.09.2020 22:00 10,5 C 9,0 C 8,9 C 96 % 998,5 hPa 3,0 l/m 0,00 h 0,93 h 0 W/m 5,8 km/h (2 Bft) 94,38 %
26.09.2020 23:00 10,4 C 9,3 C 9,3 C 97 % 997,8 hPa 6,6 l/m 0,00 h 1,00 h 0 W/m 3,2 km/h (1 Bft) 98,36 %
27.09.2020 00:00 11,1 C 10,4 C 10,0 C 98 % 996,8 hPa 3,2 l/m 0,00 h 1,00 h 0 W/m 6,8 km/h (2 Bft) 99,47 %
27.09.2020 01:00 11,5 C 10,6 C 10,0 C 99 % 995,0 hPa 2,4 l/m 0,00 h 0,83 h 0 W/m 9,8 km/h (2 Bft) 95,87 %
27.09.2020 02:00 11,3 C 10,6 C 10,2 C 99 % 993,8 hPa 1,0 l/m 0,00 h 0,20 h 0 W/m 5,4 km/h (1 Bft) 97,15 %
27.09.2020 03:00 11,6 C 10,8 C 10,6 C 100 % 993,1 hPa 0,6 l/m 0,00 h 0,03 h 0 W/m 1,1 km/h (0 Bft) 98,93 %
27.09.2020 04:00 11,9 C 11,2 C 10,8 C 100 % 993,0 hPa 0,2 l/m 0,00 h 0,00 h 0 W/m 0,8 km/h (0 Bft) 96,99 %
27.09.2020 05:00 12,2 C 11,4 C 11,1 C 100 % 993,6 hPa 0,2 l/m 0,00 h 0,00 h 0 W/m 0,1 km/h (0 Bft) 97,01 %
27.09.2020 06:00 11,5 C 10,2 C 10,1 C 100 % 994,8 hPa 0,0 l/m 0,00 h 0,00 h 0 W/m 3,6 km/h (1 Bft) 97,39 %
27.09.2020 07:00 10,5 C 9,4 C 9,4 C 100 % 996,2 hPa 0,0 l/m 0,00 h 0,00 h 8 W/m 3,4 km/h (1 Bft) 97,58 %
27.09.2020 08:00 10,2 C 9,4 C 9,4 C 100 % 998,0 hPa 0,0 l/m 0,00 h 0,00 h 21 W/m 4,3 km/h (1 Bft) 98,44 %
27.09.2020 09:00 10,0 C 9,8 C 9,4 C 100 % 999,5 hPa 0,0 l/m 0,00 h 0,00 h 63 W/m 1,4 km/h (1 Bft) 94,42 %
27.09.2020 10:00 10,8 C 11,0 C 10,4 C 100 % 1000,7 hPa 0,0 l/m 0,00 h 0,00 h 108 W/m 0,9 km/h (0 Bft) 97,44 %
27.09.2020 11:00 11,3 C 11,8 C 10,7 C 100 % 1001,6 hPa 0,0 l/m 0,00 h 0,00 h 133 W/m 0,4 km/h (0 Bft) 98,72 %
27.09.2020 12:00 11,8 C 13,2 C 11,1 C 100 % 1002,5 hPa 0,0 l/m 0,07 h 0,00 h 168 W/m 3,2 km/h (1 Bft) 94,47 %
27.09.2020 13:00 12,4 C 14,5 C 11,9 C 98 % 1003,2 hPa 0,0 l/m 0,20 h 0,00 h 234 W/m 1,2 km/h (1 Bft) 98,29 %
27.09.2020 14:00 14,0 C 16,6 C 12,7 C 91 % 1003,9 hPa 0,0 l/m 0,73 h 0,00 h 317 W/m 2,1 km/h (1 Bft) 95,72 %
27.09.2020 15:00 14,7 C 15,7 C 12,8 C 86 % 1004,4 hPa 0,0 l/m 0,17 h 0,00 h 222 W/m 0,0 km/h (0 Bft) 98,79 %
27.09.2020 16:00 14,9 C 16,4 C 13,3 C 85 % 1004,9 hPa 0,0 l/m 0,47 h 0,00 h 218 W/m 0,4 km/h (0 Bft) 97,93 %
27.09.2020 17:00 15,6 C 15,5 C 13,1 C 81 % 1005,4 hPa 0,0 l/m 0,33 h 0,00 h 136 W/m 0,1 km/h (0 Bft) 97,44 %
27.09.2020 18:00 14,7 C 13,8 C 12,1 C 81 % 1006,0 hPa 0,0 l/m 0,70 h 0,00 h 58 W/m 0,0 km/h (0 Bft) 96,58 %
27.09.2020 19:00 13,8 C 11,4 C 10,6 C 82 % 1006,7 hPa 0,0 l/m 0,00 h 0,00 h 8 W/m 0,0 km/h (0 Bft) 97,51 %
27.09.2020 20:00 12,1 C 9,8 C 9,2 C 87 % 1007,0 hPa 0,0 l/m 0,00 h 0,00 h 0 W/m 0,0 km/h (0 Bft) 96,92 %
27.09.2020 21:00 11,0 C 9,2 C 8,7 C 89 % 1007,4 hPa 0,0 l/m 0,00 h 0,00 h 0 W/m 0,0 km/h (0 Bft) 98,29 %
27.09.2020 22:00 10,3 C 8,6 C 8,3 C 91 % 1007,8 hPa 0,0 l/m 0,00 h 0,00 h 0 W/m 0,2 km/h (0 Bft) 97,33 %
27.09.2020 23:00 10,0 C 9,2 C 8,9 C 93 % 1008,2 hPa 0,0 l/m 0,00 h 0,00 h 0 W/m 0,0 km/h (0 Bft) 98,08 %
Min-Datum _ 21.09.20 21.09.20 21.09.20 21.09.20 26.09.20 - - - - 21.09.20 23.09.20
_ Min-Zeit 08:12 06:50 06:54 16:24 05:32 - - - - 00:00 00:02
Minimum _ 8,6 C 7,2 C 7,2 C 41 % 992,9 hPa - - - - 0,0 km/h (0 Bft) 11,76 %
Max-Datum _ 21.09.20 21.09.20 21.09.20 26.09.20 21.09.20 26.09.20 21.09.20 26.09.20 25.09.20 25.09.20 21.09.20
_ Max-Zeit 17:10 14:04 16:48 10:00 00:00 23:44 12:08 00:08 13:10 01:14 00:14
Maximum _ 27,6 C 32,8 C 32,2 C 100 % 1017,1 hPa 6,6 l/m 0,07 h 0,07 h 853 W/m 57,9 km/h
S-SO (7 Bft)
100,00 %
Durchschnitt _ 14,8 C 14,8 C 13,1 C 81 % 1003,9 hPa #31,8 l/m #34:53 h #13:36 h 237 W/m 8,2 km/h (2 Bft) 97,33 %
© 2020 W. Hausmann